Haviland, Ohio
Current Conditions -  °F | °C
As of 7:53 PM on Friday 28 Nov 2014 (Local Time) from KDFI Reporting Station
Overcast Overcast  
Wind Chill: 23°   Ceiling: 7000
Heat Index: 31°   Visibility: 10mi
Dew Point: 21°   Wind: 9mph
Humidity: 67%   Direction: 160°SSE
Pressure: 30.11"   Gusts: NA
Location:  41.02°N, 84.58°W
Report Text: KDFI 290053Z AUTO 16008KT 10SM OVC070 M01/M06 A3011 RMK AO2 SLP205 T10061061
Loading
Personal Weather Stations






























Interactive Weather Map New forecast layout! Learn more

10-Day Weather Forecast

Advertisements
Track Severe Weather on mobile